sensor_id;sensor_type;location;lat;lon;timestamp;P1;durP1;ratioP1;P2;durP2;ratioP2
13689;SDS011;6917;52.194;9.894;2023-04-24T00:00:03;0.10;;;0.10;;
13689;SDS011;6917;52.194;9.894;2023-04-24T00:02:30;0.00;;;0.00;;
13689;SDS011;6917;52.194;9.894;2023-04-24T00:04:57;0.00;;;0.00;;
13689;SDS011;6917;52.194;9.894;2023-04-24T00:07:27;0.30;;;0.20;;
13689;SDS011;6917;52.194;9.894;2023-04-24T00:09:52;0.00;;;0.00;;
13689;SDS011;6917;52.194;9.894;2023-04-24T00:12:18;0.10;;;0.10;;
13689;SDS011;6917;52.194;9.894;2023-04-24T00:14:43;0.43;;;0.33;;
13689;SDS011;6917;52.194;9.894;2023-04-24T00:17:08;0.87;;;0.40;;
13689;SDS011;6917;52.194;9.894;2023-04-24T00:19:33;0.10;;;0.10;;
13689;SDS011;6917;52.194;9.894;2023-04-24T00:21:59;0.17;;;0.10;;
13689;SDS011;6917;52.194;9.894;2023-04-24T00:24:24;0.10;;;0.10;;
13689;SDS011;6917;52.194;9.894;2023-04-24T00:26:50;0.17;;;0.17;;
13689;SDS011;6917;52.194;9.894;2023-04-24T00:29:15;0.00;;;0.00;;
13689;SDS011;6917;52.194;9.894;2023-04-24T00:31:40;0.23;;;0.23;;
13689;SDS011;6917;52.194;9.894;2023-04-24T00:34:05;0.10;;;0.10;;
13689;SDS011;6917;52.194;9.894;2023-04-24T00:36:31;0.10;;;0.10;;
13689;SDS011;6917;52.194;9.894;2023-04-24T00:38:57;0.00;;;0.00;;
13689;SDS011;6917;52.194;9.894;2023-04-24T00:41:23;0.20;;;0.20;;
13689;SDS011;6917;52.194;9.894;2023-04-24T00:43:50;0.10;;;0.10;;
13689;SDS011;6917;52.194;9.894;2023-04-24T00:46:16;0.07;;;0.07;;
13689;SDS011;6917;52.194;9.894;2023-04-24T00:48:42;0.57;;;0.37;;
13689;SDS011;6917;52.194;9.894;2023-04-24T00:51:08;0.20;;;0.20;;
13689;SDS011;6917;52.194;9.894;2023-04-24T00:53:33;0.40;;;0.40;;
13689;SDS011;6917;52.194;9.894;2023-04-24T00:55:58;0.20;;;0.20;;
13689;SDS011;6917;52.194;9.894;2023-04-24T00:58:24;0.30;;;0.30;;
13689;SDS011;6917;52.194;9.894;2023-04-24T01:00:51;0.60;;;0.60;;
13689;SDS011;6917;52.194;9.894;2023-04-24T01:03:18;1.80;;;0.67;;
13689;SDS011;6917;52.194;9.894;2023-04-24T01:05:46;0.20;;;0.20;;
13689;SDS011;6917;52.194;9.894;2023-04-24T01:08:12;0.20;;;0.20;;
13689;SDS011;6917;52.194;9.894;2023-04-24T01:10:38;0.87;;;0.57;;
13689;SDS011;6917;52.194;9.894;2023-04-24T01:13:06;0.20;;;0.20;;
13689;SDS011;6917;52.194;9.894;2023-04-24T01:15:33;0.20;;;0.20;;
13689;SDS011;6917;52.194;9.894;2023-04-24T01:17:59;1.87;;;0.27;;
13689;SDS011;6917;52.194;9.894;2023-04-24T01:20:24;0.00;;;0.00;;
13689;SDS011;6917;52.194;9.894;2023-04-24T01:22:51;0.37;;;0.37;;
13689;SDS011;6917;52.194;9.894;2023-04-24T01:25:16;0.10;;;0.10;;
13689;SDS011;6917;52.194;9.894;2023-04-24T01:27:41;0.00;;;0.00;;
13689;SDS011;6917;52.194;9.894;2023-04-24T01:30:07;0.00;;;0.00;;
13689;SDS011;6917;52.194;9.894;2023-04-24T01:32:33;0.00;;;0.00;;
13689;SDS011;6917;52.194;9.894;2023-04-24T01:34:58;0.47;;;0.40;;
13689;SDS011;6917;52.194;9.894;2023-04-24T01:37:24;0.00;;;0.00;;
13689;SDS011;6917;52.194;9.894;2023-04-24T01:39:49;0.10;;;0.10;;
13689;SDS011;6917;52.194;9.894;2023-04-24T01:42:15;0.70;;;0.50;;
13689;SDS011;6917;52.194;9.894;2023-04-24T01:44:41;0.07;;;0.07;;
13689;SDS011;6917;52.194;9.894;2023-04-24T01:47:07;0.00;;;0.00;;
13689;SDS011;6917;52.194;9.894;2023-04-24T01:49:32;0.23;;;0.23;;
13689;SDS011;6917;52.194;9.894;2023-04-24T01:51:57;0.20;;;0.20;;
13689;SDS011;6917;52.194;9.894;2023-04-24T01:54:23;0.00;;;0.00;;
13689;SDS011;6917;52.194;9.894;2023-04-24T01:56:48;0.37;;;0.37;;
13689;SDS011;6917;52.194;9.894;2023-04-24T01:59:14;0.13;;;0.13;;
13689;SDS011;6917;52.194;9.894;2023-04-24T02:01:41;0.00;;;0.00;;
13689;SDS011;6917;52.194;9.894;2023-04-24T02:04:07;0.20;;;0.20;;
13689;SDS011;6917;52.194;9.894;2023-04-24T02:06:32;0.20;;;0.20;;
13689;SDS011;6917;52.194;9.894;2023-04-24T02:08:58;0.10;;;0.10;;
13689;SDS011;6917;52.194;9.894;2023-04-24T02:11:24;0.13;;;0.13;;
13689;SDS011;6917;52.194;9.894;2023-04-24T02:13:49;0.73;;;0.50;;
13689;SDS011;6917;52.194;9.894;2023-04-24T02:16:16;0.10;;;0.10;;
13689;SDS011;6917;52.194;9.894;2023-04-24T02:18:42;1.03;;;0.93;;
13689;SDS011;6917;52.194;9.894;2023-04-24T02:21:07;0.07;;;0.07;;
13689;SDS011;6917;52.194;9.894;2023-04-24T02:23:32;8.83;;;1.20;;
13689;SDS011;6917;52.194;9.894;2023-04-24T02:26:00;0.10;;;0.10;;
13689;SDS011;6917;52.194;9.894;2023-04-24T02:28:25;0.00;;;0.00;;
13689;SDS011;6917;52.194;9.894;2023-04-24T02:30:51;0.00;;;0.00;;
13689;SDS011;6917;52.194;9.894;2023-04-24T02:33:16;0.53;;;0.30;;
13689;SDS011;6917;52.194;9.894;2023-04-24T02:35:44;0.00;;;0.00;;
13689;SDS011;6917;52.194;9.894;2023-04-24T02:38:10;0.00;;;0.00;;
13689;SDS011;6917;52.194;9.894;2023-04-24T02:40:35;0.37;;;0.37;;
13689;SDS011;6917;52.194;9.894;2023-04-24T02:43:03;0.00;;;0.00;;
13689;SDS011;6917;52.194;9.894;2023-04-24T02:45:29;0.00;;;0.00;;
13689;SDS011;6917;52.194;9.894;2023-04-24T02:47:54;0.17;;;0.17;;
13689;SDS011;6917;52.194;9.894;2023-04-24T02:50:20;0.00;;;0.00;;
13689;SDS011;6917;52.194;9.894;2023-04-24T02:52:45;0.10;;;0.10;;
13689;SDS011;6917;52.194;9.894;2023-04-24T02:55:11;0.30;;;0.30;;
13689;SDS011;6917;52.194;9.894;2023-04-24T02:57:36;0.57;;;0.57;;
13689;SDS011;6917;52.194;9.894;2023-04-24T03:00:01;0.00;;;0.00;;
13689;SDS011;6917;52.194;9.894;2023-04-24T03:02:28;0.00;;;0.00;;
13689;SDS011;6917;52.194;9.894;2023-04-24T03:04:53;0.33;;;0.33;;
13689;SDS011;6917;52.194;9.894;2023-04-24T03:07:18;0.00;;;0.00;;
13689;SDS011;6917;52.194;9.894;2023-04-24T03:09:45;0.20;;;0.10;;
13689;SDS011;6917;52.194;9.894;2023-04-24T03:12:11;0.20;;;0.20;;
13689;SDS011;6917;52.194;9.894;2023-04-24T03:14:36;0.00;;;0.00;;
13689;SDS011;6917;52.194;9.894;2023-04-24T03:17:01;0.10;;;0.10;;
13689;SDS011;6917;52.194;9.894;2023-04-24T03:19:27;0.20;;;0.20;;
13689;SDS011;6917;52.194;9.894;2023-04-24T03:21:55;0.00;;;0.00;;
13689;SDS011;6917;52.194;9.894;2023-04-24T03:24:21;4.80;;;0.43;;
13689;SDS011;6917;52.194;9.894;2023-04-24T03:26:46;0.37;;;0.33;;
13689;SDS011;6917;52.194;9.894;2023-04-24T03:29:11;0.00;;;0.00;;
13689;SDS011;6917;52.194;9.894;2023-04-24T03:31:37;0.00;;;0.00;;
13689;SDS011;6917;52.194;9.894;2023-04-24T03:34:02;0.33;;;0.33;;
13689;SDS011;6917;52.194;9.894;2023-04-24T03:36:27;0.10;;;0.10;;
13689;SDS011;6917;52.194;9.894;2023-04-24T03:38:55;0.00;;;0.00;;
13689;SDS011;6917;52.194;9.894;2023-04-24T03:41:21;0.00;;;0.00;;
13689;SDS011;6917;52.194;9.894;2023-04-24T03:43:50;0.00;;;0.00;;
13689;SDS011;6917;52.194;9.894;2023-04-24T03:46:18;0.20;;;0.20;;
13689;SDS011;6917;52.194;9.894;2023-04-24T03:48:46;0.00;;;0.00;;
13689;SDS011;6917;52.194;9.894;2023-04-24T03:51:11;0.00;;;0.00;;
13689;SDS011;6917;52.194;9.894;2023-04-24T03:53:37;0.00;;;0.00;;
13689;SDS011;6917;52.194;9.894;2023-04-24T03:56:11;0.00;;;0.00;;
13689;SDS011;6917;52.194;9.894;2023-04-24T03:58:37;0.00;;;0.00;;
13689;SDS011;6917;52.194;9.894;2023-04-24T04:01:02;0.00;;;0.00;;
13689;SDS011;6917;52.194;9.894;2023-04-24T04:03:30;0.00;;;0.00;;
13689;SDS011;6917;52.194;9.894;2023-04-24T04:05:56;0.00;;;0.00;;
13689;SDS011;6917;52.194;9.894;2023-04-24T04:08:21;0.00;;;0.00;;
13689;SDS011;6917;52.194;9.894;2023-04-24T04:10:46;0.00;;;0.00;;
13689;SDS011;6917;52.194;9.894;2023-04-24T04:13:12;0.00;;;0.00;;
13689;SDS011;6917;52.194;9.894;2023-04-24T04:15:43;20.23;;;0.30;;
13689;SDS011;6917;52.194;9.894;2023-04-24T04:18:08;0.00;;;0.00;;
13689;SDS011;6917;52.194;9.894;2023-04-24T04:20:34;0.00;;;0.00;;
13689;SDS011;6917;52.194;9.894;2023-04-24T04:22:59;0.00;;;0.00;;
13689;SDS011;6917;52.194;9.894;2023-04-24T04:25:25;0.00;;;0.00;;
13689;SDS011;6917;52.194;9.894;2023-04-24T04:27:50;0.00;;;0.00;;
13689;SDS011;6917;52.194;9.894;2023-04-24T04:30:17;0.00;;;0.00;;
13689;SDS011;6917;52.194;9.894;2023-04-24T04:32:43;0.00;;;0.00;;
13689;SDS011;6917;52.194;9.894;2023-04-24T04:35:08;0.00;;;0.00;;
13689;SDS011;6917;52.194;9.894;2023-04-24T04:37:34;0.00;;;0.00;;
13689;SDS011;6917;52.194;9.894;2023-04-24T04:40:03;0.10;;;0.10;;
13689;SDS011;6917;52.194;9.894;2023-04-24T04:42:32;0.00;;;0.00;;
13689;SDS011;6917;52.194;9.894;2023-04-24T04:45:02;0.00;;;0.00;;
13689;SDS011;6917;52.194;9.894;2023-04-24T04:47:27;0.00;;;0.00;;
13689;SDS011;6917;52.194;9.894;2023-04-24T04:49:56;0.10;;;0.10;;
13689;SDS011;6917;52.194;9.894;2023-04-24T04:52:21;0.00;;;0.00;;
13689;SDS011;6917;52.194;9.894;2023-04-24T04:54:50;0.00;;;0.00;;
13689;SDS011;6917;52.194;9.894;2023-04-24T04:57:16;0.00;;;0.00;;
13689;SDS011;6917;52.194;9.894;2023-04-24T04:59:41;0.00;;;0.00;;
13689;SDS011;6917;52.194;9.894;2023-04-24T05:02:07;0.00;;;0.00;;
13689;SDS011;6917;52.194;9.894;2023-04-24T05:04:32;0.00;;;0.00;;
13689;SDS011;6917;52.194;9.894;2023-04-24T05:06:57;0.20;;;0.20;;
13689;SDS011;6917;52.194;9.894;2023-04-24T05:09:23;0.37;;;0.37;;
13689;SDS011;6917;52.194;9.894;2023-04-24T05:11:52;0.00;;;0.00;;
13689;SDS011;6917;52.194;9.894;2023-04-24T05:14:17;0.30;;;0.30;;
13689;SDS011;6917;52.194;9.894;2023-04-24T05:16:43;0.00;;;0.00;;
13689;SDS011;6917;52.194;9.894;2023-04-24T05:19:09;0.57;;;0.20;;
13689;SDS011;6917;52.194;9.894;2023-04-24T05:21:35;0.00;;;0.00;;
13689;SDS011;6917;52.194;9.894;2023-04-24T05:24:01;0.00;;;0.00;;
13689;SDS011;6917;52.194;9.894;2023-04-24T05:26:26;0.00;;;0.00;;
13689;SDS011;6917;52.194;9.894;2023-04-24T05:28:52;0.10;;;0.10;;
13689;SDS011;6917;52.194;9.894;2023-04-24T05:31:22;0.00;;;0.00;;
13689;SDS011;6917;52.194;9.894;2023-04-24T05:33:47;0.20;;;0.20;;
13689;SDS011;6917;52.194;9.894;2023-04-24T05:36:13;0.00;;;0.00;;
13689;SDS011;6917;52.194;9.894;2023-04-24T05:38:38;0.00;;;0.00;;
13689;SDS011;6917;52.194;9.894;2023-04-24T05:41:06;0.00;;;0.00;;
13689;SDS011;6917;52.194;9.894;2023-04-24T05:43:34;0.10;;;0.10;;
13689;SDS011;6917;52.194;9.894;2023-04-24T05:46:00;6.03;;;0.20;;
13689;SDS011;6917;52.194;9.894;2023-04-24T05:48:25;0.07;;;0.07;;
13689;SDS011;6917;52.194;9.894;2023-04-24T05:50:51;0.10;;;0.10;;
13689;SDS011;6917;52.194;9.894;2023-04-24T05:53:17;0.00;;;0.00;;
13689;SDS011;6917;52.194;9.894;2023-04-24T05:55:43;0.00;;;0.00;;
13689;SDS011;6917;52.194;9.894;2023-04-24T05:58:08;0.03;;;0.03;;
13689;SDS011;6917;52.194;9.894;2023-04-24T06:00:34;0.20;;;0.20;;
13689;SDS011;6917;52.194;9.894;2023-04-24T06:03:02;5.40;;;1.07;;
13689;SDS011;6917;52.194;9.894;2023-04-24T06:05:28;0.00;;;0.00;;
13689;SDS011;6917;52.194;9.894;2023-04-24T06:07:55;0.10;;;0.10;;
13689;SDS011;6917;52.194;9.894;2023-04-24T06:10:22;0.30;;;0.30;;
13689;SDS011;6917;52.194;9.894;2023-04-24T06:12:48;0.10;;;0.10;;
13689;SDS011;6917;52.194;9.894;2023-04-24T06:15:13;0.13;;;0.10;;
13689;SDS011;6917;52.194;9.894;2023-04-24T06:17:38;0.00;;;0.00;;
13689;SDS011;6917;52.194;9.894;2023-04-24T06:20:04;0.63;;;0.40;;
13689;SDS011;6917;52.194;9.894;2023-04-24T06:22:31;0.03;;;0.03;;
13689;SDS011;6917;52.194;9.894;2023-04-24T06:24:57;0.40;;;0.40;;
13689;SDS011;6917;52.194;9.894;2023-04-24T06:27:24;0.40;;;0.40;;
13689;SDS011;6917;52.194;9.894;2023-04-24T06:29:50;6.77;;;0.90;;
13689;SDS011;6917;52.194;9.894;2023-04-24T06:32:19;0.30;;;0.30;;
13689;SDS011;6917;52.194;9.894;2023-04-24T06:34:48;0.83;;;0.83;;
13689;SDS011;6917;52.194;9.894;2023-04-24T06:37:13;0.43;;;0.43;;
13689;SDS011;6917;52.194;9.894;2023-04-24T06:39:39;0.00;;;0.00;;
13689;SDS011;6917;52.194;9.894;2023-04-24T06:42:04;0.37;;;0.33;;
13689;SDS011;6917;52.194;9.894;2023-04-24T06:44:30;0.60;;;0.60;;
13689;SDS011;6917;52.194;9.894;2023-04-24T06:46:55;0.53;;;0.50;;
13689;SDS011;6917;52.194;9.894;2023-04-24T06:49:20;0.73;;;0.60;;
13689;SDS011;6917;52.194;9.894;2023-04-24T06:51:48;0.20;;;0.20;;
13689;SDS011;6917;52.194;9.894;2023-04-24T06:54:17;0.20;;;0.20;;
13689;SDS011;6917;52.194;9.894;2023-04-24T06:56:42;0.40;;;0.40;;
13689;SDS011;6917;52.194;9.894;2023-04-24T06:59:07;0.63;;;0.63;;
13689;SDS011;6917;52.194;9.894;2023-04-24T07:01:33;0.40;;;0.40;;
13689;SDS011;6917;52.194;9.894;2023-04-24T07:03:58;1.20;;;0.90;;
13689;SDS011;6917;52.194;9.894;2023-04-24T07:06:27;0.30;;;0.30;;
13689;SDS011;6917;52.194;9.894;2023-04-24T07:08:56;0.40;;;0.40;;
13689;SDS011;6917;52.194;9.894;2023-04-24T07:11:25;0.20;;;0.20;;
13689;SDS011;6917;52.194;9.894;2023-04-24T07:13:57;0.80;;;0.80;;
13689;SDS011;6917;52.194;9.894;2023-04-24T07:16:25;0.90;;;0.90;;
13689;SDS011;6917;52.194;9.894;2023-04-24T07:18:53;2.80;;;1.77;;
13689;SDS011;6917;52.194;9.894;2023-04-24T07:21:18;1.27;;;1.10;;
13689;SDS011;6917;52.194;9.894;2023-04-24T07:23:44;1.47;;;1.27;;
13689;SDS011;6917;52.194;9.894;2023-04-24T07:26:09;2.53;;;1.60;;
13689;SDS011;6917;52.194;9.894;2023-04-24T07:28:45;1.47;;;1.30;;
13689;SDS011;6917;52.194;9.894;2023-04-24T07:31:11;2.27;;;2.17;;
13689;SDS011;6917;52.194;9.894;2023-04-24T07:33:42;1.90;;;1.80;;
13689;SDS011;6917;52.194;9.894;2023-04-24T07:36:12;3.43;;;2.70;;
13689;SDS011;6917;52.194;9.894;2023-04-24T07:38:46;3.30;;;2.93;;
13689;SDS011;6917;52.194;9.894;2023-04-24T07:41:32;3.10;;;2.37;;
13689;SDS011;6917;52.194;9.894;2023-04-24T07:43:58;2.97;;;2.77;;
13689;SDS011;6917;52.194;9.894;2023-04-24T07:46:23;2.43;;;2.27;;
13689;SDS011;6917;52.194;9.894;2023-04-24T07:48:52;2.67;;;2.47;;
13689;SDS011;6917;52.194;9.894;2023-04-24T07:51:35;2.47;;;2.37;;
13689;SDS011;6917;52.194;9.894;2023-04-24T07:54:03;2.70;;;2.50;;
13689;SDS011;6917;52.194;9.894;2023-04-24T07:56:38;4.07;;;3.77;;
13689;SDS011;6917;52.194;9.894;2023-04-24T07:59:13;4.20;;;3.90;;
13689;SDS011;6917;52.194;9.894;2023-04-24T08:01:47;7.83;;;4.33;;
13689;SDS011;6917;52.194;9.894;2023-04-24T08:04:16;2.87;;;2.67;;
13689;SDS011;6917;52.194;9.894;2023-04-24T08:06:42;4.07;;;3.70;;
13689;SDS011;6917;52.194;9.894;2023-04-24T08:09:14;2.97;;;2.77;;
13689;SDS011;6917;52.194;9.894;2023-04-24T08:11:39;4.07;;;3.77;;
13689;SDS011;6917;52.194;9.894;2023-04-24T08:14:05;3.73;;;3.43;;
13689;SDS011;6917;52.194;9.894;2023-04-24T08:16:32;4.33;;;4.03;;
13689;SDS011;6917;52.194;9.894;2023-04-24T08:19:08;1.70;;;1.60;;
13689;SDS011;6917;52.194;9.894;2023-04-24T08:21:36;3.20;;;3.00;;
13689;SDS011;6917;52.194;9.894;2023-04-24T08:24:04;3.43;;;3.13;;
13689;SDS011;6917;52.194;9.894;2023-04-24T08:26:36;6.07;;;2.23;;
13689;SDS011;6917;52.194;9.894;2023-04-24T08:29:04;3.80;;;3.50;;
13689;SDS011;6917;52.194;9.894;2023-04-24T08:31:31;3.50;;;3.20;;
13689;SDS011;6917;52.194;9.894;2023-04-24T08:33:56;2.63;;;2.43;;
13689;SDS011;6917;52.194;9.894;2023-04-24T08:36:24;3.30;;;3.00;;
13689;SDS011;6917;52.194;9.894;2023-04-24T08:38:50;1.80;;;1.70;;
13689;SDS011;6917;52.194;9.894;2023-04-24T08:41:24;2.30;;;2.17;;
13689;SDS011;6917;52.194;9.894;2023-04-24T08:43:58;3.20;;;2.53;;
13689;SDS011;6917;52.194;9.894;2023-04-24T08:46:40;1.13;;;1.13;;
13689;SDS011;6917;52.194;9.894;2023-04-24T08:49:21;1.00;;;1.00;;
13689;SDS011;6917;52.194;9.894;2023-04-24T08:52:09;1.97;;;1.87;;
13689;SDS011;6917;52.194;9.894;2023-04-24T08:54:46;1.20;;;1.10;;
13689;SDS011;6917;52.194;9.894;2023-04-24T08:57:18;1.47;;;1.37;;
13689;SDS011;6917;52.194;9.894;2023-04-24T09:00:15;2.83;;;2.63;;
13689;SDS011;6917;52.194;9.894;2023-04-24T09:03:17;2.00;;;1.90;;
13689;SDS011;6917;52.194;9.894;2023-04-24T09:05:43;3.57;;;3.27;;
13689;SDS011;6917;52.194;9.894;2023-04-24T09:08:13;2.50;;;1.53;;
13689;SDS011;6917;52.194;9.894;2023-04-24T09:10:39;5.87;;;1.37;;
13689;SDS011;6917;52.194;9.894;2023-04-24T09:13:05;3.30;;;3.03;;
13689;SDS011;6917;52.194;9.894;2023-04-24T09:15:33;2.20;;;2.10;;
13689;SDS011;6917;52.194;9.894;2023-04-24T09:17:59;2.40;;;1.90;;
13689;SDS011;6917;52.194;9.894;2023-04-24T09:20:25;0.50;;;0.50;;
13689;SDS011;6917;52.194;9.894;2023-04-24T09:22:53;1.87;;;1.77;;
13689;SDS011;6917;52.194;9.894;2023-04-24T09:25:20;1.33;;;1.10;;
13689;SDS011;6917;52.194;9.894;2023-04-24T09:27:46;1.43;;;1.33;;
13689;SDS011;6917;52.194;9.894;2023-04-24T09:30:12;1.13;;;1.13;;
13689;SDS011;6917;52.194;9.894;2023-04-24T09:32:38;2.30;;;2.10;;
13689;SDS011;6917;52.194;9.894;2023-04-24T09:35:07;1.00;;;1.00;;
13689;SDS011;6917;52.194;9.894;2023-04-24T09:37:41;2.03;;;1.93;;
13689;SDS011;6917;52.194;9.894;2023-04-24T09:42:37;3.33;;;1.37;;
13689;SDS011;6917;52.194;9.894;2023-04-24T09:45:02;0.90;;;0.83;;
13689;SDS011;6917;52.194;9.894;2023-04-24T09:47:35;1.30;;;1.17;;
13689;SDS011;6917;52.194;9.894;2023-04-24T09:50:08;1.20;;;1.17;;
13689;SDS011;6917;52.194;9.894;2023-04-24T09:52:45;1.03;;;1.03;;
13689;SDS011;6917;52.194;9.894;2023-04-24T09:55:13;1.07;;;1.00;;
13689;SDS011;6917;52.194;9.894;2023-04-24T09:58:14;0.93;;;0.93;;
13689;SDS011;6917;52.194;9.894;2023-04-24T10:00:33;0.80;;;0.80;;
13689;SDS011;6917;52.194;9.894;2023-04-24T10:05:25;0.70;;;0.50;;
13689;SDS011;6917;52.194;9.894;2023-04-24T10:07:58;1.00;;;1.00;;
13689;SDS011;6917;52.194;9.894;2023-04-24T10:10:25;0.60;;;0.60;;
13689;SDS011;6917;52.194;9.894;2023-04-24T10:12:51;0.60;;;0.60;;
13689;SDS011;6917;52.194;9.894;2023-04-24T10:15:17;0.70;;;0.70;;
13689;SDS011;6917;52.194;9.894;2023-04-24T10:17:46;1.07;;;0.93;;
13689;SDS011;6917;52.194;9.894;2023-04-24T10:20:17;0.23;;;0.23;;
13689;SDS011;6917;52.194;9.894;2023-04-24T10:22:44;0.40;;;0.40;;
13689;SDS011;6917;52.194;9.894;2023-04-24T10:25:14;0.87;;;0.80;;
13689;SDS011;6917;52.194;9.894;2023-04-24T10:27:41;0.20;;;0.20;;
13689;SDS011;6917;52.194;9.894;2023-04-24T10:30:06;1.00;;;1.00;;
13689;SDS011;6917;52.194;9.894;2023-04-24T10:32:33;1.00;;;1.00;;
13689;SDS011;6917;52.194;9.894;2023-04-24T10:34:58;2.10;;;1.23;;
13689;SDS011;6917;52.194;9.894;2023-04-24T10:37:23;1.23;;;1.13;;
13689;SDS011;6917;52.194;9.894;2023-04-24T10:39:50;0.97;;;0.97;;
13689;SDS011;6917;52.194;9.894;2023-04-24T10:42:19;0.30;;;0.30;;
13689;SDS011;6917;52.194;9.894;2023-04-24T10:44:46;0.00;;;0.00;;
13689;SDS011;6917;52.194;9.894;2023-04-24T10:47:13;0.77;;;0.77;;
13689;SDS011;6917;52.194;9.894;2023-04-24T10:49:39;3.43;;;1.03;;
13689;SDS011;6917;52.194;9.894;2023-04-24T10:52:05;0.60;;;0.60;;
13689;SDS011;6917;52.194;9.894;2023-04-24T10:59:43;1.53;;;1.43;;
13689;SDS011;6917;52.194;9.894;2023-04-24T11:02:09;1.60;;;1.40;;
13689;SDS011;6917;52.194;9.894;2023-04-24T11:04:34;0.93;;;0.90;;
13689;SDS011;6917;52.194;9.894;2023-04-24T11:07:00;0.90;;;0.90;;
13689;SDS011;6917;52.194;9.894;2023-04-24T11:09:28;12.40;;;1.10;;
13689;SDS011;6917;52.194;9.894;2023-04-24T11:17:31;0.60;;;0.60;;
13689;SDS011;6917;52.194;9.894;2023-04-24T11:20:00;0.57;;;0.57;;
13689;SDS011;6917;52.194;9.894;2023-04-24T11:22:32;0.30;;;0.30;;
13689;SDS011;6917;52.194;9.894;2023-04-24T11:25:00;0.53;;;0.20;;
13689;SDS011;6917;52.194;9.894;2023-04-24T11:27:29;0.60;;;0.60;;
13689;SDS011;6917;52.194;9.894;2023-04-24T11:37:45;0.77;;;0.70;;
13689;SDS011;6917;52.194;9.894;2023-04-24T11:40:11;0.20;;;0.20;;
13689;SDS011;6917;52.194;9.894;2023-04-24T11:42:41;0.37;;;0.37;;
13689;SDS011;6917;52.194;9.894;2023-04-24T11:47:37;0.70;;;0.70;;
13689;SDS011;6917;52.194;9.894;2023-04-24T11:50:04;0.40;;;0.40;;
13689;SDS011;6917;52.194;9.894;2023-04-24T11:52:31;0.00;;;0.00;;
13689;SDS011;6917;52.194;9.894;2023-04-24T11:54:56;0.13;;;0.13;;
13689;SDS011;6917;52.194;9.894;2023-04-24T11:57:23;0.30;;;0.30;;
13689;SDS011;6917;52.194;9.894;2023-04-24T11:59:51;0.33;;;0.30;;
13689;SDS011;6917;52.194;9.894;2023-04-24T12:02:20;13.13;;;1.10;;
13689;SDS011;6917;52.194;9.894;2023-04-24T12:04:49;0.93;;;0.63;;
13689;SDS011;6917;52.194;9.894;2023-04-24T12:07:15;0.70;;;0.70;;
13689;SDS011;6917;52.194;9.894;2023-04-24T12:09:54;0.40;;;0.40;;
13689;SDS011;6917;52.194;9.894;2023-04-24T12:12:22;0.83;;;0.83;;
13689;SDS011;6917;52.194;9.894;2023-04-24T12:14:57;3.47;;;0.97;;
13689;SDS011;6917;52.194;9.894;2023-04-24T12:17:24;0.53;;;0.40;;
13689;SDS011;6917;52.194;9.894;2023-04-24T12:19:51;1.00;;;1.00;;
13689;SDS011;6917;52.194;9.894;2023-04-24T12:22:16;1.17;;;0.53;;
13689;SDS011;6917;52.194;9.894;2023-04-24T12:27:29;0.90;;;0.37;;
13689;SDS011;6917;52.194;9.894;2023-04-24T12:29:56;0.43;;;0.43;;
13689;SDS011;6917;52.194;9.894;2023-04-24T12:32:22;0.43;;;0.43;;
13689;SDS011;6917;52.194;9.894;2023-04-24T12:34:49;1.03;;;0.90;;
13689;SDS011;6917;52.194;9.894;2023-04-24T12:37:16;0.47;;;0.47;;
13689;SDS011;6917;52.194;9.894;2023-04-24T12:42:29;0.10;;;0.10;;
13689;SDS011;6917;52.194;9.894;2023-04-24T12:44:56;0.97;;;0.60;;
13689;SDS011;6917;52.194;9.894;2023-04-24T12:47:28;0.50;;;0.50;;
13689;SDS011;6917;52.194;9.894;2023-04-24T12:49:54;0.67;;;0.67;;
13689;SDS011;6917;52.194;9.894;2023-04-24T12:52:20;0.33;;;0.33;;
13689;SDS011;6917;52.194;9.894;2023-04-24T12:54:47;0.50;;;0.50;;
13689;SDS011;6917;52.194;9.894;2023-04-24T12:57:12;0.70;;;0.70;;
13689;SDS011;6917;52.194;9.894;2023-04-24T12:59:37;0.40;;;0.40;;
13689;SDS011;6917;52.194;9.894;2023-04-24T13:02:04;0.80;;;0.80;;
13689;SDS011;6917;52.194;9.894;2023-04-24T13:04:30;0.73;;;0.73;;
13689;SDS011;6917;52.194;9.894;2023-04-24T13:06:55;0.70;;;0.70;;
13689;SDS011;6917;52.194;9.894;2023-04-24T13:09:20;0.77;;;0.77;;
13689;SDS011;6917;52.194;9.894;2023-04-24T13:11:46;1.10;;;0.60;;
13689;SDS011;6917;52.194;9.894;2023-04-24T13:14:11;0.67;;;0.63;;
13689;SDS011;6917;52.194;9.894;2023-04-24T13:16:37;0.60;;;0.60;;
13689;SDS011;6917;52.194;9.894;2023-04-24T13:19:02;0.43;;;0.43;;
13689;SDS011;6917;52.194;9.894;2023-04-24T13:21:28;1.03;;;1.03;;
13689;SDS011;6917;52.194;9.894;2023-04-24T13:23:55;5.10;;;0.77;;
13689;SDS011;6917;52.194;9.894;2023-04-24T13:26:21;0.50;;;0.50;;
13689;SDS011;6917;52.194;9.894;2023-04-24T13:28:46;0.30;;;0.30;;
13689;SDS011;6917;52.194;9.894;2023-04-24T13:31:11;0.27;;;0.27;;
13689;SDS011;6917;52.194;9.894;2023-04-24T13:33:37;0.30;;;0.30;;
13689;SDS011;6917;52.194;9.894;2023-04-24T13:36:02;0.30;;;0.30;;
13689;SDS011;6917;52.194;9.894;2023-04-24T13:38:27;0.30;;;0.30;;
13689;SDS011;6917;52.194;9.894;2023-04-24T13:40:53;1.00;;;0.83;;
13689;SDS011;6917;52.194;9.894;2023-04-24T13:43:18;0.30;;;0.30;;
13689;SDS011;6917;52.194;9.894;2023-04-24T13:45:43;0.40;;;0.40;;
13689;SDS011;6917;52.194;9.894;2023-04-24T13:48:09;0.60;;;0.60;;
13689;SDS011;6917;52.194;9.894;2023-04-24T13:50:34;0.40;;;0.40;;
13689;SDS011;6917;52.194;9.894;2023-04-24T13:52:59;0.20;;;0.20;;
13689;SDS011;6917;52.194;9.894;2023-04-24T13:55:26;5.40;;;0.50;;
13689;SDS011;6917;52.194;9.894;2023-04-24T13:57:51;0.70;;;0.40;;
13689;SDS011;6917;52.194;9.894;2023-04-24T14:00:20;0.10;;;0.10;;
13689;SDS011;6917;52.194;9.894;2023-04-24T14:02:45;0.20;;;0.20;;
13689;SDS011;6917;52.194;9.894;2023-04-24T14:05:12;0.40;;;0.27;;
13689;SDS011;6917;52.194;9.894;2023-04-24T14:07:39;0.30;;;0.30;;
13689;SDS011;6917;52.194;9.894;2023-04-24T14:10:04;0.20;;;0.20;;
13689;SDS011;6917;52.194;9.894;2023-04-24T14:12:30;0.10;;;0.10;;
13689;SDS011;6917;52.194;9.894;2023-04-24T14:14:55;1.27;;;0.30;;
13689;SDS011;6917;52.194;9.894;2023-04-24T14:17:21;0.10;;;0.10;;
13689;SDS011;6917;52.194;9.894;2023-04-24T14:19:46;0.57;;;0.20;;
13689;SDS011;6917;52.194;9.894;2023-04-24T14:22:12;0.17;;;0.17;;
13689;SDS011;6917;52.194;9.894;2023-04-24T14:24:37;0.10;;;0.10;;
13689;SDS011;6917;52.194;9.894;2023-04-24T14:27:02;0.00;;;0.00;;
13689;SDS011;6917;52.194;9.894;2023-04-24T14:29:28;0.23;;;0.23;;
13689;SDS011;6917;52.194;9.894;2023-04-24T14:31:53;0.27;;;0.27;;
13689;SDS011;6917;52.194;9.894;2023-04-24T14:34:18;0.30;;;0.23;;
13689;SDS011;6917;52.194;9.894;2023-04-24T14:36:44;0.20;;;0.20;;
13689;SDS011;6917;52.194;9.894;2023-04-24T14:39:10;0.60;;;0.40;;
13689;SDS011;6917;52.194;9.894;2023-04-24T14:41:35;0.57;;;0.37;;
13689;SDS011;6917;52.194;9.894;2023-04-24T14:44:02;0.50;;;0.50;;
13689;SDS011;6917;52.194;9.894;2023-04-24T14:46:28;0.50;;;0.50;;
13689;SDS011;6917;52.194;9.894;2023-04-24T14:48:57;0.53;;;0.53;;
13689;SDS011;6917;52.194;9.894;2023-04-24T14:51:22;0.40;;;0.40;;
13689;SDS011;6917;52.194;9.894;2023-04-24T14:53:48;0.47;;;0.47;;
13689;SDS011;6917;52.194;9.894;2023-04-24T14:56:14;0.27;;;0.27;;
13689;SDS011;6917;52.194;9.894;2023-04-24T14:58:40;0.97;;;0.97;;
13689;SDS011;6917;52.194;9.894;2023-04-24T15:01:05;0.30;;;0.30;;
13689;SDS011;6917;52.194;9.894;2023-04-24T15:03:31;0.60;;;0.60;;
13689;SDS011;6917;52.194;9.894;2023-04-24T15:05:56;0.57;;;0.50;;
13689;SDS011;6917;52.194;9.894;2023-04-24T15:08:21;0.23;;;0.23;;
13689;SDS011;6917;52.194;9.894;2023-04-24T15:10:46;0.33;;;0.33;;
13689;SDS011;6917;52.194;9.894;2023-04-24T15:13:12;0.90;;;0.90;;
13689;SDS011;6917;52.194;9.894;2023-04-24T15:15:38;3.50;;;1.30;;
13689;SDS011;6917;52.194;9.894;2023-04-24T15:18:04;0.93;;;0.93;;
13689;SDS011;6917;52.194;9.894;2023-04-24T15:20:30;0.37;;;0.37;;
13689;SDS011;6917;52.194;9.894;2023-04-24T15:22:56;1.17;;;1.10;;
13689;SDS011;6917;52.194;9.894;2023-04-24T15:25:21;4.63;;;1.50;;
13689;SDS011;6917;52.194;9.894;2023-04-24T15:27:47;1.50;;;1.40;;
13689;SDS011;6917;52.194;9.894;2023-04-24T15:30:12;5.23;;;1.57;;